Time;durP1;ratioP1;P1;durP2;ratioP2;P2;SDS_P1;SDS_P2;PMS_P1;PMS_P2;Temp;Humidity;BMP_temperature;BMP_pressure;BME280_temperature;BME280_humidity;BME280_pressure;Samples;Min_cycle;Max_cycle;Signal;HPM_P1;HPM_P2
2022/01/25 00:33:52;;;;;;;136.03;50.40;;;;;;;-1.38;78.60;100527.03;4132367;85;21071;-86
2022/01/25 00:40:03;;;;;;;118.33;48.70;;;;;;;-1.33;78.61;100521.70;4089379;86;21134;-87
2022/01/25 00:46:25;;;;;;;116.17;47.80;;;;;;;-1.33;78.81;100521.14;4050844;85;21109;-86
2022/01/25 00:58:47;;;;;;;113.30;46.08;;;;;;;-1.28;78.93;100518.48;4053555;86;21820;-86
2022/01/25 01:05:07;;;;;;;107.40;45.83;;;;;;;-1.23;78.94;100513.67;4037464;86;21071;-86
2022/01/25 01:11:27;;;;;;;104.67;44.90;;;;;;;-1.22;78.89;100510.72;4083229;85;21123;-86
2022/01/25 01:43:26;;;;;;;146.07;58.65;;;;;;;-1.16;79.63;100486.83;4077260;84;21542;-87
2022/01/25 01:49:25;;;;;;;145.80;58.52;;;;;;;-1.12;79.88;100484.44;4070339;84;21795;-87
2022/01/25 01:55:51;;;;;;;143.05;63.00;;;;;;;-1.09;80.04;100479.88;4067984;85;21754;-87
2022/01/25 02:01:57;;;;;;;141.20;61.07;;;;;;;-1.07;80.29;100476.41;4167843;84;21106;-88
2022/01/25 02:08:00;;;;;;;163.77;68.02;;;;;;;-1.03;80.75;100461.35;4215176;83;21079;-88
2022/01/25 02:14:13;;;;;;;148.80;65.08;;;;;;;-1.01;80.96;100436.38;4199341;83;21066;-86
2022/01/25 02:27:03;;;;;;;117.37;48.98;;;;;;;-0.95;81.57;100432.09;4189366;83;21595;-88
2022/01/25 02:33:05;;;;;;;114.37;49.70;;;;;;;-0.85;82.43;100436.16;4207568;83;21661;-87
2022/01/25 02:39:14;;;;;;;109.30;47.70;;;;;;;-0.78;82.54;100438.57;4215703;83;21597;-87
2022/01/25 02:45:19;;;;;;;94.15;37.45;;;;;;;-0.74;82.84;100440.48;4220420;83;21858;-87
2022/01/25 02:51:27;;;;;;;82.78;37.20;;;;;;;-0.71;83.33;100427.86;4214451;83;21047;-89
2022/01/25 02:58:00;;;;;;;81.17;36.15;;;;;;;-0.66;83.60;100426.49;4216230;83;21846;-88
2022/01/25 03:04:21;;;;;;;78.47;34.38;;;;;;;-0.62;84.07;100420.05;4208065;83;21066;-87
2022/01/25 03:10:22;;;;;;;81.53;36.45;;;;;;;-0.59;84.23;100418.17;4229403;83;21094;-89
2022/01/25 03:16:34;;;;;;;81.10;35.60;;;;;;;-0.67;84.85;100391.27;4207052;83;21088;-88
2022/01/25 03:29:33;;;;;;;80.32;35.40;;;;;;;-0.59;85.28;100393.96;4143205;83;55840;-88
2022/01/25 03:35:43;;;;;;;76.62;34.48;;;;;;;-0.46;85.73;100409.05;4031910;87;21409;-89
2022/01/25 03:41:45;;;;;;;75.57;33.65;;;;;;;-0.43;85.72;100407.17;4028225;87;21104;-89
2022/01/25 03:54:13;;;;;;;78.95;35.50;;;;;;;-0.36;86.37;100409.59;4004888;87;21606;-89
2022/01/25 04:07:50;;;;;;;78.97;35.75;;;;;;;-0.39;86.83;100402.03;4024548;87;21082;-88
2022/01/25 04:14:47;;;;;;;78.33;34.60;;;;;;;-0.50;86.41;100366.82;3934438;88;21162;-89
2022/01/25 04:21:11;;;;;;;84.65;36.93;;;;;;;-0.50;86.41;100366.82;3937207;88;22502;-89
2022/01/25 04:27:21;;;;;;;72.65;32.45;;;;;;;-0.53;86.84;100348.50;3929064;89;21104;-89
2022/01/25 04:33:56;;;;;;;91.60;38.17;;;;;;;-0.50;87.33;100372.98;3969030;88;21594;-89
2022/01/25 04:52:52;;;;;;;80.77;40.28;;;;;;;-0.34;88.08;100358.98;4105490;83;21403;-89
2022/01/25 04:59:09;;;;;;;80.45;36.90;;;;;;;-0.25;88.64;100361.42;4123413;83;22360;-89
2022/01/25 05:05:12;;;;;;;85.20;39.18;;;;;;;-0.23;88.51;100347.95;4141812;83;22089;-89
2022/01/25 05:11:20;;;;;;;86.40;39.30;;;;;;;-0.37;88.79;100321.87;4124607;84;21012;-88
2022/01/25 05:17:43;;;;;;;79.53;37.40;;;;;;;-0.37;88.79;100321.87;4127393;84;21748;-89
2022/01/25 05:23:42;;;;;;;73.62;35.08;;;;;;;-0.33;89.03;100322.39;4131908;85;21136;-89
2022/01/25 05:29:49;;;;;;;72.03;35.80;;;;;;;-0.23;89.16;100333.68;4133347;83;21117;-89
2022/01/25 05:35:51;;;;;;;76.72;34.18;;;;;;;-0.23;89.34;100347.95;4127808;83;21118;-90
2022/01/25 05:41:57;;;;;;;74.85;36.70;;;;;;;-0.19;89.28;100332.08;4094057;83;21153;-90
2022/01/25 05:47:58;;;;;;;72.83;33.47;;;;;;;-0.18;89.65;100329.11;4121849;83;21180;-89
2022/01/25 05:53:59;;;;;;;77.17;35.73;;;;;;;-0.26;89.43;100314.05;4134905;84;21074;-89
2022/01/25 06:00:24;;;;;;;84.72;37.45;;;;;;;-0.26;89.92;100312.17;4107647;84;21186;-90
2022/01/25 06:06:27;;;;;;;75.70;36.77;;;;;;;-0.22;90.83;100293.04;4140245;83;21063;-89
2022/01/25 06:12:30;;;;;;;63.70;32.42;;;;;;;-0.33;91.63;100279.34;4135868;84;22007;-90
2022/01/25 06:24:59;;;;;;;63.45;30.68;;;;;;;-0.29;91.31;100306.52;4032173;86;21147;-90
2022/01/25 06:31:01;;;;;;;52.98;27.37;;;;;;;-0.26;91.08;100297.90;4011600;86;21426;-89
2022/01/25 06:37:19;;;;;;;56.48;28.85;;;;;;;-0.22;91.14;100294.95;3986971;87;21075;-89
2022/01/25 06:43:20;;;;;;;66.67;30.23;;;;;;;-0.13;91.06;100279.31;4029962;86;21085;-90
2022/01/25 06:49:22;;;;;;;72.75;35.88;;;;;;;-0.13;91.06;100279.31;4124560;83;21530;-89
2022/01/25 06:55:26;;;;;;;70.35;34.65;;;;;;;-0.06;91.42;100279.81;4122263;84;21136;-88
2022/01/25 07:01:55;;;;;;;69.58;35.30;;;;;;;-0.04;91.43;100288.96;4121363;84;21067;-88
2022/01/25 07:07:56;;;;;;;67.35;35.33;;;;;;;0.00;91.43;100286.00;4110786;83;21091;-89
2022/01/25 07:20:51;;;;;;;62.27;31.60;;;;;;;-0.01;91.57;100287.87;4109874;84;21053;-89
2022/01/25 07:27:11;;;;;;;69.80;32.38;;;;;;;0.02;91.72;100275.74;4109604;83;21596;-88
2022/01/25 07:33:12;;;;;;;60.73;31.02;;;;;;;-0.13;91.92;100253.75;4122505;83;21071;-89
2022/01/25 07:39:30;;;;;;;71.12;34.70;;;;;;;0.07;92.39;100282.98;4130627;84;21876;-89
2022/01/25 07:45:35;;;;;;;66.60;34.98;;;;;;;0.08;92.38;100268.47;4113525;83;21198;-88
2022/01/25 07:51:35;;;;;;;83.85;40.38;;;;;;;0.10;92.53;100269.79;4136222;84;21644;-88
2022/01/25 07:57:59;;;;;;;70.67;35.80;;;;;;;0.16;92.60;100269.25;4054440;85;21134;-89
2022/01/25 08:04:00;;;;;;;70.83;37.48;;;;;;;0.21;92.69;100273.23;4028247;86;21097;-88
2022/01/25 08:10:03;;;;;;;67.37;32.70;;;;;;;0.26;92.84;100266.48;4010531;86;22213;-88
2022/01/25 08:16:05;;;;;;;67.20;32.13;;;;;;;0.29;93.09;100264.59;4137425;84;21082;-89
2022/01/25 08:22:18;;;;;;;63.75;31.60;;;;;;;0.39;93.04;100275.32;4155870;84;21140;-87
2022/01/25 08:28:24;;;;;;;68.85;32.95;;;;;;;0.50;93.23;100264.20;4141570;84;21370;-88
2022/01/25 08:34:44;;;;;;;65.87;30.95;;;;;;;0.56;93.24;100262.30;4136248;84;21685;-88
2022/01/25 08:40:46;;;;;;;62.50;30.35;;;;;;;0.45;93.10;100240.53;4150762;83;21082;-90
2022/01/25 08:46:47;;;;;;;67.85;34.13;;;;;;;0.60;93.12;100254.72;4067031;86;21098;-90
2022/01/25 08:53:07;;;;;;;57.93;29.35;;;;;;;0.63;93.26;100255.50;3999312;87;21118;-88
2022/01/25 08:59:10;;;;;;;64.17;31.57;;;;;;;0.68;93.21;100254.13;3998827;86;21238;-88
2022/01/25 09:05:12;;;;;;;69.65;34.45;;;;;;;0.71;93.34;100259.48;4141099;84;21104;-91
2022/01/25 09:11:13;;;;;;;122.55;52.88;;;;;;;0.69;93.29;100263.81;4124681;84;21123;-88
2022/01/25 09:17:15;;;;;;;79.92;39.73;;;;;;;0.57;93.25;100265.23;4142623;83;21088;-88
2022/01/25 09:23:38;;;;;;;73.90;33.85;;;;;;;0.55;93.41;100260.13;4127885;83;21067;-87
2022/01/25 09:29:42;;;;;;;63.73;32.50;;;;;;;0.68;93.83;100266.25;4136340;83;21172;-88
2022/01/25 09:35:44;;;;;;;60.45;30.80;;;;;;;0.85;94.08;100260.47;4120388;84;22126;-89
2022/01/25 09:41:46;;;;;;;57.25;28.87;;;;;;;0.88;93.74;100249.94;4109623;84;21061;-89
2022/01/25 09:47:48;;;;;;;59.53;29.32;;;;;;;0.94;93.80;100246.11;4141431;84;22562;-87
2022/01/25 09:53:49;;;;;;;59.20;30.68;;;;;;;0.92;93.85;100239.41;4093667;84;21372;-88
2022/01/25 09:59:52;;;;;;;64.95;29.82;;;;;;;0.80;93.71;100242.45;4107326;84;21508;-88
2022/01/25 10:06:04;;;;;;;67.62;29.80;;;;;;;0.69;93.81;100244.16;4135074;84;21015;-88
2022/01/25 10:12:21;;;;;;;62.20;30.52;;;;;;;0.68;94.08;100245.23;4132149;84;21076;-89
2022/01/25 10:18:23;;;;;;;58.78;27.50;;;;;;;0.67;94.30;100243.63;4096224;84;21549;-88
2022/01/25 10:24:31;;;;;;;57.20;26.87;;;;;;;0.76;94.52;100239.24;4133974;84;21630;-90
2022/01/25 10:30:49;;;;;;;54.25;26.17;;;;;;;0.84;94.48;100227.34;4150290;83;21558;-88
2022/01/25 10:36:53;;;;;;;51.28;25.72;;;;;;;0.91;94.38;100225.67;4121803;83;21111;-90
2022/01/25 10:42:59;;;;;;;51.73;25.97;;;;;;;1.01;94.37;100224.22;4119660;83;21102;-89
2022/01/25 10:49:13;;;;;;;59.38;28.17;;;;;;;1.11;94.63;100200.66;4134386;84;21712;-88
2022/01/25 10:55:16;;;;;;;60.45;30.15;;;;;;;1.13;94.24;100204.42;4123719;84;21683;-88
2022/01/25 11:01:36;;;;;;;52.80;27.52;;;;;;;1.16;94.31;100200.62;4126226;84;21114;-90
2022/01/25 11:07:44;;;;;;;58.87;27.67;;;;;;;1.19;94.37;100188.47;4125304;83;21684;-90
2022/01/25 11:13:49;;;;;;;57.62;26.12;;;;;;;1.22;94.39;100194.64;4134368;83;21032;-88
2022/01/25 11:19:49;;;;;;;55.60;27.98;;;;;;;1.28;94.26;100187.58;4130800;84;21844;-89
2022/01/25 11:25:51;;;;;;;58.00;27.60;;;;;;;1.32;94.45;100174.30;4135556;84;21064;-89
2022/01/25 11:32:00;;;;;;;51.33;25.92;;;;;;;1.36;94.37;100172.65;4098828;84;21097;-90
2022/01/25 11:38:17;;;;;;;58.35;27.22;;;;;;;1.33;94.40;100151.64;4131698;84;21043;-88
2022/01/25 11:44:26;;;;;;;55.35;28.98;;;;;;;1.37;94.56;100134.59;4134375;83;21102;-87
2022/01/25 11:50:33;;;;;;;55.17;28.60;;;;;;;1.47;94.70;100116.92;4128530;84;21166;-90
2022/01/25 11:56:39;;;;;;;59.60;28.95;;;;;;;1.48;94.71;100111.80;4133581;83;21641;-90
2022/01/25 12:15:17;;;;;;;50.33;25.27;;;;;;;1.58;94.56;100110.30;4121766;84;21131;-91
2022/01/25 12:21:50;;;;;;;63.15;25.35;;;;;;;1.58;94.51;100098.73;4140589;83;21120;-91
2022/01/25 12:28:11;;;;;;;57.38;25.05;;;;;;;1.57;94.44;100102.50;4143057;83;21061;-91
2022/01/25 12:34:26;;;;;;;71.67;33.63;;;;;;;1.54;94.59;100090.94;4126977;84;21113;-92
2022/01/25 12:40:37;;;;;;;55.03;25.45;;;;;;;1.53;94.52;100099.56;4136539;83;21105;-90
2022/01/25 12:46:50;;;;;;;58.65;28.70;;;;;;;1.55;94.53;100097.96;4099280;84;21134;-91
2022/01/25 12:53:00;;;;;;;57.55;26.17;;;;;;;1.56;94.51;100082.83;4117558;84;21221;-90
2022/01/25 12:59:12;;;;;;;65.13;31.60;;;;;;;1.54;94.51;100086.35;4111835;84;21183;-91
2022/01/25 13:05:21;;;;;;;55.30;27.17;;;;;;;1.50;94.56;100090.70;4123767;84;21180;-91
2022/01/25 13:11:47;;;;;;;52.80;25.27;;;;;;;1.45;94.40;100096.19;4119345;84;21095;-90
2022/01/25 13:17:44;;;;;;;57.33;28.10;;;;;;;1.43;94.37;100102.95;4123854;83;21078;-90
2022/01/25 13:23:52;;;;;;;55.08;28.20;;;;;;;1.38;94.50;100096.25;4127689;83;21513;-89
2022/01/25 13:36:20;;;;;;;59.20;28.27;;;;;;;1.31;94.57;100089.07;4120447;83;21689;-89
2022/01/25 13:42:56;;;;;;;50.70;24.13;;;;;;;1.31;94.62;100086.38;4110126;84;21087;-89
2022/01/25 13:48:44;;;;;;;71.57;30.60;;;;;;;1.28;94.74;100086.95;4108274;84;21711;-89
2022/01/25 13:54:46;;;;;;;69.82;30.23;;;;;;;1.19;94.69;100092.16;4120839;83;21110;-88
2022/01/25 14:00:48;;;;;;;77.87;33.20;;;;;;;1.14;94.86;100100.87;4053052;86;21043;-90
2022/01/25 14:06:59;;;;;;;82.02;32.17;;;;;;;1.11;95.05;100097.40;4051329;85;21124;-90
2022/01/25 14:25:46;;;;;;;87.50;35.70;;;;;;;1.03;95.29;100098.83;4011893;86;143022;-89
2022/01/25 14:31:47;;;;;;;76.28;35.17;;;;;;;1.04;95.25;100103.12;4018939;86;21107;-89
2022/01/25 14:37:49;;;;;;;90.55;37.40;;;;;;;0.99;95.35;100097.78;4027112;86;21188;-88
2022/01/25 14:44:00;;;;;;;83.20;35.45;;;;;;;0.95;95.37;100099.45;4044397;86;21643;-89
2022/01/25 14:50:01;;;;;;;86.85;36.88;;;;;;;0.93;95.41;100107.02;4022697;86;21051;-90
2022/01/25 14:56:05;;;;;;;78.62;33.92;;;;;;;0.92;95.42;100109.46;4037300;86;21710;-90
2022/01/25 15:08:27;;;;;;;76.70;34.88;;;;;;;0.87;95.54;100116.24;4134821;84;21098;-87
2022/01/25 15:14:38;;;;;;;76.20;35.38;;;;;;;0.88;95.55;100125.11;4059178;86;21102;-90
2022/01/25 15:20:34;;;;;;;81.25;35.38;;;;;;;0.89;95.62;100124.05;3998191;87;21078;-90
2022/01/25 15:26:37;;;;;;;82.35;38.00;;;;;;;0.88;95.62;100129.16;4128605;84;21127;-88
2022/01/25 15:32:38;;;;;;;77.32;35.58;;;;;;;0.87;95.68;100124.86;4061574;86;21134;-90
2022/01/25 15:38:40;;;;;;;86.15;37.83;;;;;;;0.83;95.78;100122.48;4033221;86;21079;-90
2022/01/25 15:44:45;;;;;;;73.37;33.05;;;;;;;0.81;95.74;100117.38;4027681;86;21532;-89
2022/01/25 15:57:15;;;;;;;76.40;33.05;;;;;;;0.82;95.82;100119.52;3993249;87;21639;-88
2022/01/25 16:03:19;;;;;;;79.17;34.83;;;;;;;0.84;95.90;100113.30;4026956;87;21146;-87
2022/01/25 16:09:22;;;;;;;69.60;31.75;;;;;;;0.81;95.88;100120.61;4004470;86;102142;-88
2022/01/25 16:22:04;;;;;;;80.50;35.70;;;;;;;0.80;95.95;100126.54;3976590;88;22174;-88
2022/01/25 16:28:06;;;;;;;85.03;35.10;;;;;;;0.78;96.00;100124.69;4007516;87;21058;-88
2022/01/25 16:34:12;;;;;;;76.70;32.00;;;;;;;0.80;96.03;100139.23;3981297;88;21076;-89
2022/01/25 16:40:15;;;;;;;78.47;32.88;;;;;;;0.80;96.03;100143.27;3980725;88;21219;-89
2022/01/25 16:46:20;;;;;;;75.25;32.67;;;;;;;0.80;96.15;100144.63;3967825;88;21154;-90
2022/01/25 16:52:21;;;;;;;72.65;32.93;;;;;;;0.80;96.26;100141.36;3984843;87;21693;-88
2022/01/25 16:58:24;;;;;;;80.32;34.98;;;;;;;0.76;96.34;100140.87;4015715;87;21136;-90
2022/01/25 17:04:27;;;;;;;78.97;36.40;;;;;;;0.76;96.38;100144.91;3945795;88;21186;-90
2022/01/25 17:10:29;;;;;;;82.50;34.70;;;;;;;0.74;96.48;100142.50;3997532;87;21245;-88
2022/01/25 17:16:30;;;;;;;89.47;36.85;;;;;;;0.77;96.54;100145.16;3957363;88;21079;-89
2022/01/25 17:22:32;;;;;;;88.03;38.20;;;;;;;0.77;96.54;100147.32;4026559;87;21107;-89
2022/01/25 17:28:42;;;;;;;84.55;36.42;;;;;;;0.77;96.63;100141.12;4001602;87;21735;-89
2022/01/25 17:34:40;;;;;;;77.60;34.80;;;;;;;0.75;96.69;100144.66;4027855;87;21080;-88
2022/01/25 17:40:42;;;;;;;82.50;33.90;;;;;;;0.75;96.71;100143.31;4025599;86;21131;-88
2022/01/25 17:46:44;;;;;;;79.62;35.05;;;;;;;0.75;96.68;100140.62;4024052;87;21087;-89
2022/01/25 17:52:46;;;;;;;86.82;37.08;;;;;;;0.77;96.72;100144.63;4022361;87;21605;-89
2022/01/25 17:58:48;;;;;;;85.75;37.17;;;;;;;0.76;96.79;100148.95;3998579;86;21114;-90
2022/01/25 18:04:57;;;;;;;83.72;38.83;;;;;;;0.77;96.80;100143.28;4028028;86;21618;-89
2022/01/25 18:11:03;;;;;;;93.17;40.92;;;;;;;0.80;96.88;100140.02;4003413;86;21194;-90
2022/01/25 18:17:05;;;;;;;87.27;38.13;;;;;;;0.83;96.99;100127.31;4022991;86;21182;-88
2022/01/25 18:23:13;;;;;;;81.95;35.25;;;;;;;0.81;96.92;100125.47;4026990;86;21171;-89
2022/01/25 18:29:14;;;;;;;92.00;38.83;;;;;;;0.79;97.07;100115.51;4010883;87;21800;-88
2022/01/25 18:35:16;;;;;;;82.97;36.60;;;;;;;0.79;97.11;100118.20;3945503;88;21105;-89
2022/01/25 18:41:17;;;;;;;74.80;33.80;;;;;;;0.76;97.11;100113.91;3939826;88;21198;-89
2022/01/25 18:47:19;;;;;;;78.65;35.03;;;;;;;0.76;97.24;100118.77;3987742;87;21846;-89
2022/01/25 18:53:20;;;;;;;85.57;34.98;;;;;;;0.80;97.34;100117.11;4008183;87;21156;-89
2022/01/25 18:59:21;;;;;;;85.10;38.30;;;;;;;0.80;97.39;100114.41;3947764;88;21076;-88
2022/01/25 19:05:25;;;;;;;80.45;35.30;;;;;;;0.78;97.45;100113.09;3999550;87;21255;-89
2022/01/25 19:11:28;;;;;;;74.67;33.33;;;;;;;0.75;97.41;100107.71;4007168;87;21134;-89
2022/01/25 19:17:29;;;;;;;80.07;37.10;;;;;;;0.70;97.52;100111.83;4028276;86;21169;-88
2022/01/25 19:23:34;;;;;;;84.47;37.03;;;;;;;0.69;97.64;100119.63;4022310;86;21159;-90
2022/01/25 19:29:37;;;;;;;86.42;37.80;;;;;;;0.67;97.67;100107.53;4022914;86;21752;-89
2022/01/25 19:35:43;;;;;;;90.75;38.23;;;;;;;0.66;97.73;100115.37;4022601;86;21096;-88
2022/01/25 19:41:46;;;;;;;94.25;39.18;;;;;;;0.64;97.94;100115.66;4030916;86;21060;-88
2022/01/25 19:47:49;;;;;;;88.55;39.85;;;;;;;0.62;97.89;100113.78;4007290;87;21070;-89
2022/01/25 19:53:54;;;;;;;98.12;39.88;;;;;;;0.64;98.11;100117.00;4006585;87;21066;-90
2022/01/25 20:00:07;;;;;;;91.15;38.67;;;;;;;0.67;98.12;100117.78;4012573;87;21600;-88
2022/01/25 20:06:09;;;;;;;89.85;36.03;;;;;;;0.68;98.19;100120.72;4028897;87;21097;-89
2022/01/25 20:12:13;;;;;;;90.00;39.78;;;;;;;0.71;98.41;100118.00;4031275;86;21098;-90
2022/01/25 20:18:15;;;;;;;92.25;36.85;;;;;;;0.70;98.46;100106.44;4019914;87;21136;-89
2022/01/25 20:30:36;;;;;;;80.07;35.28;;;;;;;0.72;98.56;100112.32;4028830;87;21130;-90
2022/01/25 20:36:26;;;;;;;77.53;34.13;;;;;;;0.73;98.75;100111.78;4005620;87;21744;-89
2022/01/25 20:42:28;;;;;;;78.92;34.10;;;;;;;0.72;98.94;100116.36;4014776;87;21137;-90
2022/01/25 20:48:32;;;;;;;85.65;37.78;;;;;;;0.75;98.89;100116.36;4010493;86;21169;-90
2022/01/25 20:54:36;;;;;;;81.65;36.53;;;;;;;0.75;99.08;100117.70;4004840;87;21067;-89
2022/01/25 21:00:47;;;;;;;94.55;40.60;;;;;;;0.71;99.20;100112.61;3969993;88;21159;-88
2022/01/25 21:06:53;;;;;;;94.22;38.63;;;;;;;0.70;99.29;100113.17;4104303;84;21061;-91
2022/01/25 21:12:48;;;;;;;92.15;39.27;;;;;;;0.67;99.25;100121.02;4104553;84;21088;-89
2022/01/25 21:18:56;;;;;;;87.75;36.60;;;;;;;0.63;99.46;100108.64;4115218;84;21161;-89
2022/01/25 21:24:55;;;;;;;73.12;29.10;;;;;;;0.61;99.55;100112.72;4119818;84;21676;-89
2022/01/25 21:31:04;;;;;;;87.92;37.17;;;;;;;0.59;99.74;100104.91;4097454;84;21063;-89
2022/01/25 21:37:01;;;;;;;82.47;33.63;;;;;;;0.56;99.61;100103.32;4008268;87;21670;-90
2022/01/25 21:43:03;;;;;;;93.40;35.92;;;;;;;0.54;99.59;100098.75;4007100;87;21098;-89
2022/01/25 21:49:05;;;;;;;84.13;35.55;;;;;;;0.51;99.88;100098.78;3966019;87;21079;-89
2022/01/25 21:55:07;;;;;;;85.20;35.20;;;;;;;0.52;100.00;100100.94;4019801;87;21097;-87
2022/01/25 22:01:10;;;;;;;91.72;37.55;;;;;;;0.49;100.00;100083.97;4014472;87;21147;-90
2022/01/25 22:07:14;;;;;;;100.85;40.73;;;;;;;0.47;100.00;100084.25;4007796;86;21099;-88
2022/01/25 22:13:23;;;;;;;106.65;41.88;;;;;;;0.47;100.00;100094.25;4009151;87;21078;-88
2022/01/25 22:19:22;;;;;;;105.10;41.92;;;;;;;0.50;100.00;100096.38;3946221;88;21749;-90
2022/01/25 22:25:24;;;;;;;114.25;42.65;;;;;;;0.38;100.00;100074.36;3975878;88;21263;-88
2022/01/25 22:38:18;;;;;;;90.10;37.95;;;;;;;0.40;100.00;100046.61;4008463;86;21099;-88
2022/01/25 22:44:19;;;;;;;88.40;38.08;;;;;;;0.40;100.00;100046.61;3983479;88;21102;-89
2022/01/25 22:50:28;;;;;;;85.10;36.05;;;;;;;0.56;100.00;100069.64;3981771;87;21114;-89
2022/01/25 22:56:32;;;;;;;83.17;36.83;;;;;;;0.61;100.00;100069.60;3946634;88;21092;-88
2022/01/25 23:02:35;;;;;;;85.47;36.00;;;;;;;0.66;100.00;100062.83;4006823;87;21055;-89
2022/01/25 23:08:37;;;;;;;77.87;35.35;;;;;;;0.65;100.00;100061.20;3991267;87;21082;-89
2022/01/25 23:14:46;;;;;;;71.10;32.33;;;;;;;0.66;100.00;100064.95;3968187;88;21127;-90
2022/01/25 23:20:43;;;;;;;70.12;32.13;;;;;;;0.69;100.00;100063.59;4014519;87;21099;-89
2022/01/25 23:26:53;;;;;;;76.25;33.98;;;;;;;0.71;100.00;100066.79;3999858;87;21082;-89
2022/01/25 23:33:17;;;;;;;83.22;36.30;;;;;;;0.72;100.00;100049.55;3952905;88;21115;-89
2022/01/25 23:39:15;;;;;;;77.67;33.85;;;;;;;0.72;100.00;100049.55;4014621;87;21182;-88
2022/01/25 23:45:10;;;;;;;79.25;36.20;;;;;;;0.67;100.00;100038.28;4020483;87;21115;-88
2022/01/25 23:51:31;;;;;;;79.55;34.55;;;;;;;0.68;100.00;100040.41;4019162;87;21160;-87
